Time,TemperatureF,DewpointF,PressureIn,WindDirection,WindDirectionDegrees,WindSpeedMPH,WindSpeedGustMPH,Humidity,HourlyPrecipIn,Conditions,Clouds,dailyrainin,SoftwareType,DateUTC
2013-09-11 00:00:00,72.0,68.0,30.12,SSW,209,0.0,5.0,90,0.00,,,-99.99,,2013-09-11 04:00:00,
2013-09-11 00:44:00,72.0,68.0,30.12,SSW,209,0.0,5.0,90,0.00,,,-99.99,,2013-09-11 04:44:00,
2013-09-11 00:54:00,72.0,68.0,30.12,SSW,209,0.0,5.0,90,0.00,,,-99.99,,2013-09-11 04:54:00,
2013-09-11 01:00:00,72.0,69.0,30.11,SSW,201,5.0,7.0,89,0.00,,,-99.99,,2013-09-11 05:00:00,
2013-09-11 01:43:00,72.0,69.0,30.11,SSW,201,5.0,7.0,89,0.00,,,-99.99,,2013-09-11 05:43:00,
2013-09-11 01:53:00,72.0,69.0,30.11,SSW,201,5.0,7.0,89,0.00,,,-99.99,,2013-09-11 05:53:00,
2013-09-11 02:00:00,72.0,69.0,30.10,SW,228,3.0,8.0,88,0.00,,,-99.99,,2013-09-11 06:00:00,
2013-09-11 02:42:00,72.0,69.0,30.10,SW,228,3.0,8.0,88,0.00,,,-99.99,,2013-09-11 06:42:00,
2013-09-11 02:52:00,72.0,69.0,30.10,SW,228,3.0,8.0,88,0.00,,,-99.99,,2013-09-11 06:52:00,
2013-09-11 03:00:00,71.0,68.0,30.09,South,191,0.0,6.0,90,0.00,,,-99.99,,2013-09-11 07:00:00,
2013-09-11 03:42:00,71.0,68.0,30.09,South,191,0.0,6.0,90,0.00,,,-99.99,,2013-09-11 07:42:00,
2013-09-11 03:53:00,71.0,68.0,30.09,South,191,0.0,6.0,90,0.00,,,-99.99,,2013-09-11 07:53:00,
2013-09-11 04:00:00,70.0,68.0,30.08,SSW,209,1.0,5.0,92,0.00,,,-99.99,,2013-09-11 08:00:00,
2013-09-11 04:42:00,70.0,68.0,30.08,SSW,209,1.0,5.0,92,0.00,,,-99.99,,2013-09-11 08:42:00,
2013-09-11 04:52:00,70.0,68.0,30.08,SSW,209,1.0,5.0,92,0.00,,,-99.99,,2013-09-11 08:52:00,
2013-09-11 05:00:00,70.0,68.0,30.09,South,175,0.0,4.0,92,0.00,,,-99.99,,2013-09-11 09:00:00,
2013-09-11 05:43:00,70.0,68.0,30.09,South,175,0.0,4.0,92,0.00,,,-99.99,,2013-09-11 09:43:00,
2013-09-11 05:53:00,70.0,68.0,30.09,South,175,0.0,4.0,92,0.00,,,-99.99,,2013-09-11 09:53:00,
2013-09-11 06:00:00,68.0,66.0,30.09,South,186,0.0,0.0,93,0.00,,,-99.99,,2013-09-11 10:00:00,
2013-09-11 06:43:00,68.0,66.0,30.09,South,186,0.0,0.0,93,0.00,,,-99.99,,2013-09-11 10:43:00,
2013-09-11 06:53:00,68.0,66.0,30.09,South,186,0.0,0.0,93,0.00,,,-99.99,,2013-09-11 10:53:00,
2013-09-11 07:00:00,68.0,66.0,30.11,South,190,0.0,0.0,93,0.00,,,-99.99,,2013-09-11 11:00:00,
2013-09-11 07:42:00,68.0,66.0,30.11,South,190,0.0,0.0,93,0.00,,,-99.99,,2013-09-11 11:42:00,
2013-09-11 07:52:00,68.0,66.0,30.11,South,190,0.0,0.0,93,0.00,,,-99.99,,2013-09-11 11:52:00,
2013-09-11 08:00:00,72.0,69.0,30.11,SSW,202,0.0,4.0,89,0.00,,,-99.99,,2013-09-11 12:00:00,
2013-09-11 08:42:00,72.0,69.0,30.11,SSW,202,0.0,4.0,89,0.00,,,-99.99,,2013-09-11 12:42:00,
2013-09-11 08:52:00,72.0,69.0,30.11,SSW,202,0.0,4.0,89,0.00,,,-99.99,,2013-09-11 12:52:00,
2013-09-11 09:00:00,77.0,70.0,30.11,SSW,196,7.0,9.0,79,0.00,,,-99.99,,2013-09-11 13:00:00,
2013-09-11 09:42:00,77.0,70.0,30.11,SSW,196,7.0,9.0,79,0.00,,,-99.99,,2013-09-11 13:42:00,
2013-09-11 09:52:00,77.0,70.0,30.11,SSW,196,7.0,9.0,79,0.00,,,-99.99,,2013-09-11 13:52:00,
2013-09-11 10:00:00,81.0,72.0,30.11,WSW,248,4.0,9.0,73,0.00,,,-99.99,,2013-09-11 14:00:00,
2013-09-11 10:42:00,81.0,72.0,30.11,WSW,248,4.0,9.0,73,0.00,,,-99.99,,2013-09-11 14:42:00,
2013-09-11 10:52:00,81.0,72.0,30.11,WSW,248,4.0,9.0,73,0.00,,,-99.99,,2013-09-11 14:52:00,
2013-09-11 11:00:00,85.0,73.0,30.09,WSW,247,0.0,6.0,68,0.00,,,-99.99,,2013-09-11 15:00:00,
2013-09-11 11:43:00,85.0,73.0,30.09,WSW,247,0.0,6.0,68,0.00,,,-99.99,,2013-09-11 15:43:00,
2013-09-11 11:54:00,85.0,73.0,30.09,WSW,247,0.0,6.0,68,0.00,,,-99.99,,2013-09-11 15:54:00,
2013-09-11 12:00:00,88.0,72.0,30.07,South,177,0.0,9.0,60,0.00,,,-99.99,,2013-09-11 16:00:00,
2013-09-11 12:43:00,88.0,72.0,30.07,South,177,0.0,9.0,60,0.00,,,-99.99,,2013-09-11 16:43:00,
2013-09-11 12:53:00,88.0,72.0,30.07,South,177,0.0,9.0,60,0.00,,,-99.99,,2013-09-11 16:53:00,
2013-09-11 13:00:00,91.0,70.0,30.06,SSW,192,9.0,13.0,50,0.00,,,-99.99,,2013-09-11 17:00:00,
2013-09-11 13:43:00,91.0,70.0,30.06,SSW,192,9.0,13.0,50,0.00,,,-99.99,,2013-09-11 17:43:00,
2013-09-11 13:52:00,91.0,70.0,30.06,SSW,192,9.0,13.0,50,0.00,,,-99.99,,2013-09-11 17:52:00,
2013-09-11 14:00:00,92.0,68.0,30.03,SSW,211,7.0,15.0,45,0.00,,,-99.99,,2013-09-11 18:00:00,
2013-09-11 14:42:00,92.0,68.0,30.03,SSW,211,7.0,15.0,45,0.00,,,-99.99,,2013-09-11 18:42:00,
2013-09-11 14:52:00,92.0,68.0,30.03,SSW,211,7.0,15.0,45,0.00,,,-99.99,,2013-09-11 18:52:00,
2013-09-11 15:00:00,93.0,69.0,30.01,SSW,213,7.0,16.0,46,0.00,,,-99.99,,2013-09-11 19:00:00,
2013-09-11 15:42:00,93.0,69.0,30.01,SSW,213,7.0,16.0,46,0.00,,,-99.99,,2013-09-11 19:42:00,
2013-09-11 15:53:00,93.0,69.0,30.01,SSW,213,7.0,16.0,46,0.00,,,-99.99,,2013-09-11 19:53:00,
2013-09-11 16:00:00,91.0,66.0,29.99,SW,231,6.0,17.0,44,0.00,,,-99.99,,2013-09-11 20:00:00,
2013-09-11 16:42:00,91.0,66.0,29.99,SW,231,6.0,17.0,44,0.00,,,-99.99,,2013-09-11 20:42:00,
2013-09-11 16:52:00,91.0,66.0,29.99,SW,231,6.0,17.0,44,0.00,,,-99.99,,2013-09-11 20:52:00,
2013-09-11 17:00:00,90.0,68.0,29.98,WSW,251,12.0,20.0,49,0.00,,,-99.99,,2013-09-11 21:00:00,
2013-09-11 17:44:00,90.0,68.0,29.98,WSW,251,12.0,20.0,49,0.00,,,-99.99,,2013-09-11 21:44:00,
2013-09-11 17:54:00,90.0,68.0,29.98,WSW,251,12.0,20.0,49,0.00,,,-99.99,,2013-09-11 21:54:00,
2013-09-11 18:00:00,86.0,70.0,29.99,South,191,3.0,19.0,59,0.00,,,-99.99,,2013-09-11 22:00:00,
2013-09-11 18:43:00,86.0,70.0,29.99,South,191,3.0,19.0,59,0.00,,,-99.99,,2013-09-11 22:43:00,
2013-09-11 18:54:00,86.0,70.0,29.99,South,191,3.0,19.0,59,0.00,,,-99.99,,2013-09-11 22:54:00,
2013-09-11 19:00:00,82.0,70.0,30.01,SW,215,0.0,13.0,67,0.00,,,-99.99,,2013-09-11 23:00:00,
2013-09-11 19:42:00,82.0,70.0,30.01,SW,215,0.0,13.0,67,0.00,,,-99.99,,2013-09-11 23:42:00,
2013-09-11 19:53:00,82.0,70.0,30.01,SW,215,0.0,13.0,67,0.00,,,-99.99,,2013-09-11 23:53:00,
2013-09-11 20:00:00,78.0,69.0,30.01,SSE,168,0.0,9.0,75,0.00,,,-99.99,,2013-09-12 00:00:00,
2013-09-11 20:42:00,78.0,69.0,30.01,SSE,168,0.0,9.0,75,0.00,,,-99.99,,2013-09-12 00:42:00,
2013-09-11 20:52:00,78.0,69.0,30.01,SSE,168,0.0,9.0,75,0.00,,,-99.99,,2013-09-12 00:52:00,
2013-09-11 21:00:00,75.0,68.0,30.02,South,173,3.0,5.0,79,0.00,,,-99.99,,2013-09-12 01:00:00,
2013-09-11 21:42:00,75.0,68.0,30.02,South,173,3.0,5.0,79,0.00,,,-99.99,,2013-09-12 01:42:00,
2013-09-11 21:52:00,75.0,68.0,30.02,South,173,3.0,5.0,79,0.00,,,-99.99,,2013-09-12 01:52:00,
2013-09-11 22:00:00,72.0,67.0,30.02,South,173,0.0,4.0,85,0.00,,,-99.99,,2013-09-12 02:00:00,
2013-09-11 22:52:00,72.0,67.0,30.02,South,173,0.0,4.0,85,0.00,,,-99.99,,2013-09-12 02:52:00,
2013-09-11 23:00:00,71.0,67.0,30.01,SSW,192,0.0,4.0,87,0.00,,,-99.99,,2013-09-12 03:00:00,
2013-09-11 23:45:00,71.0,67.0,30.01,SSW,192,0.0,4.0,87,0.00,,,-99.99,,2013-09-12 03:45:00,
2013-09-11 23:55:00,71.0,67.0,30.01,SSW,192,0.0,4.0,87,0.00,,,-99.99,,2013-09-12 03:55:00,